createdAt,value
2018-09-19T00:01:58.122Z,20.20
2018-09-19T00:07:25.551Z,20.10
2018-09-19T00:10:06.947Z,20.00
2018-09-19T00:50:42.200Z,19.60
2018-09-19T01:06:11.348Z,19.00
2018-09-19T01:11:46.791Z,19.00
2018-09-19T01:14:21.961Z,19.10
2018-09-19T01:23:21.683Z,19.20
2018-09-19T01:25:54.092Z,19.40
2018-09-19T01:31:47.848Z,19.70
2018-09-19T01:34:31.306Z,19.80
2018-09-19T01:37:20.083Z,19.90
2018-09-19T01:47:53.687Z,19.90
2018-09-19T02:12:16.965Z,19.60
2018-09-19T02:16:13.753Z,19.40
2018-09-19T02:26:40.048Z,19.30
2018-09-19T02:29:14.928Z,19.10
2018-09-19T02:32:04.531Z,19.00
2018-09-19T02:59:45.431Z,19.00
2018-09-19T03:08:21.807Z,18.60
2018-09-19T04:43:25.377Z,17.90
2018-09-19T05:30:29.076Z,18.10
2018-09-19T05:58:20.270Z,18.20
2018-09-19T07:01:28.363Z,18.90
2018-09-19T07:03:57.792Z,19.80
2018-09-19T07:06:27.407Z,19.90
2018-09-19T07:08:56.453Z,20.10
2018-09-19T07:11:25.906Z,21.00
2018-09-19T07:13:55.260Z,22.10
2018-09-19T07:16:25.232Z,23.10
2018-09-19T07:18:54.283Z,24.30
2018-09-19T07:21:23.249Z,25.00
2018-09-19T07:23:52.385Z,25.40
2018-09-19T07:26:21.716Z,25.60
2018-09-19T07:28:50.823Z,24.30
2018-09-19T07:31:19.875Z,23.60
2018-09-19T07:33:48.931Z,24.20
2018-09-19T07:36:17.920Z,24.90
2018-09-19T07:38:47.658Z,25.10
2018-09-19T07:41:16.804Z,25.70
2018-09-19T07:43:46.180Z,25.60
2018-09-19T07:46:15.371Z,25.40
2018-09-19T07:48:44.469Z,25.00
2018-09-19T07:51:13.493Z,24.60
2018-09-19T07:53:42.516Z,24.00
2018-09-19T07:56:11.657Z,23.80
2018-09-19T07:58:40.970Z,23.60
2018-09-19T08:01:10.191Z,23.60
2018-09-19T08:03:39.187Z,23.60
2018-09-19T08:06:08.257Z,23.50
2018-09-19T08:08:37.309Z,24.00
2018-09-19T08:11:06.315Z,24.00
2018-09-19T08:13:35.454Z,24.20
2018-09-19T08:16:06.287Z,25.00
2018-09-19T08:18:35.765Z,25.40
2018-09-19T08:21:05.059Z,25.50
2018-09-19T08:23:34.150Z,26.20
2018-09-19T08:26:03.479Z,26.80
2018-09-19T08:28:33.262Z,26.90
2018-09-19T08:31:03.452Z,27.30
2018-09-19T08:33:33.041Z,27.50
2018-09-19T08:36:02.294Z,27.50
2018-09-19T08:38:31.314Z,26.90
2018-09-19T08:41:00.388Z,26.90
2018-09-19T08:43:29.615Z,27.10
2018-09-19T08:45:58.634Z,27.80
2018-09-19T08:48:27.742Z,27.50
2018-09-19T08:50:56.868Z,28.20
2018-09-19T08:53:25.893Z,27.90
2018-09-19T08:55:54.904Z,27.60
2018-09-19T08:58:24.019Z,28.10
2018-09-19T09:00:52.955Z,28.10
2018-09-19T09:03:22.248Z,28.40
2018-09-19T09:05:51.692Z,28.80
2018-09-19T09:08:20.741Z,29.50
2018-09-19T09:10:49.952Z,30.10
2018-09-19T09:13:18.930Z,30.40
2018-09-19T09:15:48.224Z,30.50
2018-09-19T09:18:17.298Z,29.90
2018-09-19T09:20:46.466Z,30.10
2018-09-19T09:23:15.476Z,29.90
2018-09-19T09:25:44.537Z,30.30
2018-09-19T09:28:13.598Z,30.60
2018-09-19T09:30:42.611Z,30.20
2018-09-19T09:33:11.785Z,29.50
2018-09-19T09:35:40.996Z,29.90
2018-09-19T09:38:11.017Z,29.90
2018-09-19T09:40:40.288Z,30.80
2018-09-19T09:43:10.253Z,31.20
2018-09-19T09:45:39.375Z,31.30
2018-09-19T09:48:08.693Z,31.10
2018-09-19T09:50:37.906Z,31.50
2018-09-19T09:53:06.964Z,31.20
2018-09-19T09:55:36.129Z,31.60
2018-09-19T09:58:05.205Z,31.80
2018-09-19T10:00:41.082Z,31.90
2018-09-19T10:03:11.108Z,31.80
2018-09-19T10:05:40.434Z,31.40
2018-09-19T10:08:09.523Z,31.60
2018-09-19T10:10:39.379Z,31.90
2018-09-19T10:13:08.435Z,32.00
2018-09-19T10:15:37.414Z,31.80
2018-09-19T10:18:06.413Z,31.90
2018-09-19T10:20:35.435Z,32.20
2018-09-19T10:23:04.647Z,32.00
2018-09-19T10:25:34.107Z,32.30
2018-09-19T10:28:03.087Z,32.80
2018-09-19T10:30:33.384Z,32.90
2018-09-19T10:33:02.320Z,32.80
2018-09-19T10:35:31.396Z,32.50
2018-09-19T10:38:00.393Z,32.60
2018-09-19T10:40:29.367Z,32.40
2018-09-19T10:42:58.470Z,31.20
2018-09-19T10:45:27.446Z,31.60
2018-09-19T10:47:56.980Z,32.40
2018-09-19T10:50:26.078Z,32.10
2018-09-19T10:52:55.174Z,32.40
2018-09-19T10:55:24.786Z,32.40
2018-09-19T10:57:53.882Z,32.90
2018-09-19T11:00:22.907Z,33.00
2018-09-19T11:02:51.950Z,32.30
2018-09-19T11:05:20.947Z,32.20
2018-09-19T11:07:51.261Z,32.30
2018-09-19T11:10:20.470Z,31.90
2018-09-19T11:12:49.645Z,30.60
2018-09-19T11:15:18.616Z,30.40
2018-09-19T11:17:47.852Z,31.40
2018-09-19T11:20:16.854Z,31.80
2018-09-19T11:22:45.834Z,31.90
2018-09-19T11:25:14.853Z,32.20
2018-09-19T11:27:44.003Z,32.20
2018-09-19T11:30:13.104Z,32.30
2018-09-19T11:32:42.106Z,32.50
2018-09-19T11:35:11.170Z,32.60
2018-09-19T11:37:40.146Z,32.40
2018-09-19T11:40:09.354Z,32.30
2018-09-19T11:42:38.308Z,32.00
2018-09-19T11:45:07.658Z,31.70
2018-09-19T11:47:36.804Z,31.10
2018-09-19T11:50:06.464Z,32.10
2018-09-19T11:52:35.732Z,32.60
2018-09-19T11:55:05.332Z,32.70
2018-09-19T11:57:34.411Z,32.20
2018-09-19T12:00:03.739Z,32.40
2018-09-19T12:02:32.743Z,32.20
2018-09-19T12:05:01.760Z,31.40
2018-09-19T12:07:31.365Z,30.70
2018-09-19T12:10:00.574Z,31.20
2018-09-19T12:12:29.791Z,31.80
2018-09-19T12:14:59.207Z,32.10
2018-09-19T12:17:28.225Z,32.10
2018-09-19T12:19:57.260Z,30.90
2018-09-19T12:22:26.314Z,30.20
2018-09-19T12:24:55.380Z,30.20
2018-09-19T12:27:24.343Z,30.00
2018-09-19T12:29:53.447Z,30.30
2018-09-19T12:32:22.598Z,30.00
2018-09-19T12:34:51.807Z,30.30
2018-09-19T12:37:20.760Z,31.00
2018-09-19T12:39:49.752Z,31.10
2018-09-19T12:42:18.783Z,30.50
2018-09-19T12:44:47.785Z,30.90
2018-09-19T12:47:16.811Z,31.50
2018-09-19T12:49:46.018Z,31.40
2018-09-19T12:52:15.137Z,31.00
2018-09-19T12:54:44.125Z,31.10
2018-09-19T12:57:13.143Z,31.10
2018-09-19T12:59:42.252Z,30.60
2018-09-19T13:02:11.250Z,29.80
2018-09-19T13:07:18.888Z,30.70
2018-09-19T13:09:48.244Z,31.10
2018-09-19T13:12:17.782Z,31.20
2018-09-19T13:14:47.022Z,31.50
2018-09-19T13:17:17.107Z,31.40
2018-09-19T13:19:53.080Z,31.30
2018-09-19T13:22:22.342Z,30.40
2018-09-19T13:25:55.231Z,30.10
2018-09-19T13:28:25.753Z,30.00
2018-09-19T13:30:54.794Z,29.90
2018-09-19T13:33:23.916Z,29.50
2018-09-19T13:35:53.075Z,29.80
2018-09-19T13:38:22.401Z,29.80
2018-09-19T13:40:51.599Z,29.60
2018-09-19T13:43:22.399Z,29.80
2018-09-19T13:45:56.801Z,29.70
2018-09-19T13:48:28.552Z,29.90
2018-09-19T13:51:11.321Z,29.70
2018-09-19T13:53:41.407Z,29.50
2018-09-19T13:56:14.449Z,29.20
2018-09-19T13:58:44.384Z,29.30
2018-09-19T14:01:14.122Z,29.50
2018-09-19T14:03:45.785Z,29.60
2018-09-19T14:09:10.993Z,29.60
2018-09-19T14:11:45.448Z,29.80
2018-09-19T14:14:15.177Z,29.80
2018-09-19T14:28:10.663Z,29.20
2018-09-19T14:30:39.704Z,29.40
2018-09-19T14:33:08.958Z,29.30
2018-09-19T14:35:38.011Z,29.10
2018-09-19T14:38:08.072Z,29.20
2018-09-19T14:40:37.286Z,29.10
2018-09-19T14:43:06.424Z,28.90
2018-09-19T14:45:35.452Z,29.10
2018-09-19T14:48:04.865Z,29.20
2018-09-19T14:50:33.926Z,29.20
2018-09-19T14:53:02.983Z,29.20
2018-09-19T14:55:32.005Z,29.30
2018-09-19T14:58:01.101Z,29.40
2018-09-19T15:00:30.216Z,29.30
2018-09-19T15:02:59.259Z,29.20
2018-09-19T15:05:28.703Z,29.10
2018-09-19T15:07:57.944Z,29.20
2018-09-19T15:10:30.640Z,29.20
2018-09-19T15:13:00.923Z,29.10
2018-09-19T15:15:34.465Z,29.00
2018-09-19T15:18:08.819Z,29.00
2018-09-19T15:20:39.944Z,28.90
2018-09-19T15:23:15.777Z,28.80
2018-09-19T15:25:52.012Z,28.70
2018-09-19T15:28:24.754Z,28.70
2018-09-19T15:30:54.670Z,28.60
2018-09-19T15:33:25.362Z,28.50
2018-09-19T15:35:55.184Z,28.50
2018-09-19T15:38:24.643Z,28.50
2018-09-19T15:40:53.568Z,28.50
2018-09-19T15:43:22.562Z,28.50
2018-09-19T15:45:51.948Z,28.50
2018-09-19T15:48:21.230Z,28.50
2018-09-19T15:50:57.011Z,28.40
2018-09-19T15:53:30.528Z,28.40
2018-09-19T15:56:00.313Z,28.40
2018-09-19T15:58:29.458Z,28.30
2018-09-19T16:00:58.490Z,28.30
2018-09-19T16:03:27.878Z,28.40
2018-09-19T16:05:57.607Z,28.40
2018-09-19T16:08:26.408Z,28.40
2018-09-19T16:10:55.381Z,28.40
2018-09-19T16:13:24.345Z,28.30
2018-09-19T16:15:53.321Z,28.20
2018-09-19T16:18:22.325Z,28.10
2018-09-19T16:20:51.387Z,28.10
2018-09-19T16:23:20.285Z,28.00
2018-09-19T16:25:49.299Z,27.90
2018-09-19T16:28:18.291Z,27.90
2018-09-19T16:30:47.392Z,27.80
2018-09-19T16:33:16.366Z,27.70
2018-09-19T16:35:45.374Z,27.70
2018-09-19T16:38:14.370Z,27.60
2018-09-19T16:40:43.352Z,27.50
2018-09-19T16:43:12.461Z,27.50
2018-09-19T16:45:41.486Z,27.40
2018-09-19T16:48:10.497Z,27.40
2018-09-19T16:50:39.620Z,27.40
2018-09-19T16:53:08.679Z,27.30
2018-09-19T16:55:37.646Z,27.20
2018-09-19T16:58:06.682Z,27.10
2018-09-19T17:00:35.774Z,27.00
2018-09-19T17:03:04.832Z,26.90
2018-09-19T17:05:33.906Z,26.80
2018-09-19T17:08:02.851Z,26.80
2018-09-19T17:10:31.875Z,26.70
2018-09-19T17:13:00.893Z,26.60
2018-09-19T17:15:30.089Z,26.60
2018-09-19T17:17:58.939Z,26.50
2018-09-19T17:20:28.209Z,26.40
2018-09-19T17:22:57.358Z,26.30
2018-09-19T17:25:26.517Z,26.20
2018-09-19T17:27:55.661Z,26.20
2018-09-19T17:30:24.742Z,26.10
2018-09-19T17:32:53.776Z,26.00
2018-09-19T17:35:22.884Z,25.90
2018-09-19T17:37:52.597Z,25.80
2018-09-19T17:40:21.633Z,25.70
2018-09-19T17:42:57.519Z,25.60
2018-09-19T17:45:26.976Z,25.60
2018-09-19T17:47:56.267Z,25.60
2018-09-19T17:50:26.050Z,25.60
2018-09-19T17:52:55.310Z,25.50
2018-09-19T17:55:25.021Z,25.50
2018-09-19T17:57:54.589Z,25.50
2018-09-19T18:00:27.847Z,25.50
2018-09-19T18:05:46.593Z,25.40
2018-09-19T18:08:16.203Z,25.40
2018-09-19T18:10:45.132Z,25.30
2018-09-19T18:13:14.286Z,25.20
2018-09-19T18:15:43.949Z,25.20
2018-09-19T18:18:12.985Z,25.20
2018-09-19T18:20:42.115Z,25.10
2018-09-19T18:23:11.187Z,25.10
2018-09-19T18:25:40.199Z,25.10
2018-09-19T18:28:09.240Z,25.10
2018-09-19T18:30:38.464Z,25.00
2018-09-19T18:33:07.457Z,25.10
2018-09-19T18:35:36.610Z,25.10
2018-09-19T18:38:05.612Z,25.10
2018-09-19T18:40:34.663Z,25.10
2018-09-19T18:43:03.770Z,25.00
2018-09-19T18:45:32.801Z,25.00
2018-09-19T18:48:01.841Z,25.00
2018-09-19T18:50:30.855Z,25.00
2018-09-19T18:53:00.081Z,25.00
2018-09-19T18:55:29.265Z,25.00
2018-09-19T18:57:58.510Z,24.90
2018-09-19T19:00:27.514Z,24.80
2018-09-19T19:02:56.644Z,24.70
2018-09-19T19:05:25.682Z,24.70
2018-09-19T19:07:54.798Z,24.60
2018-09-19T19:10:23.860Z,24.60
2018-09-19T19:12:52.877Z,24.50
2018-09-19T19:15:21.951Z,24.50
2018-09-19T19:17:50.935Z,24.40
2018-09-19T19:20:19.962Z,24.30
2018-09-19T19:22:48.956Z,24.30
2018-09-19T19:25:17.973Z,24.20
2018-09-19T19:27:47.149Z,24.20
2018-09-19T19:30:16.750Z,24.20
2018-09-19T19:32:45.947Z,24.10
2018-09-19T19:35:15.084Z,24.10
2018-09-19T19:37:44.205Z,24.00
2018-09-19T19:40:13.162Z,24.00
2018-09-19T19:42:42.332Z,23.90
2018-09-19T19:45:11.945Z,23.90
2018-09-19T19:47:41.107Z,23.90
2018-09-19T19:50:10.396Z,23.80
2018-09-19T19:52:39.430Z,23.80
2018-09-19T19:55:08.496Z,23.80
2018-09-19T19:57:37.559Z,23.70
2018-09-19T20:00:06.659Z,23.70
2018-09-19T20:02:35.927Z,23.60
2018-09-19T20:05:04.975Z,23.60
2018-09-19T20:07:34.016Z,23.50
2018-09-19T20:10:03.123Z,23.50
2018-09-19T20:12:32.255Z,23.40
2018-09-19T20:15:01.312Z,23.40
2018-09-19T20:17:31.224Z,23.30
2018-09-19T20:20:00.276Z,23.30
2018-09-19T20:22:29.354Z,23.20
2018-09-19T20:24:58.404Z,23.20
2018-09-19T20:27:28.969Z,23.20
2018-09-19T20:29:58.020Z,23.10
2018-09-19T20:32:27.018Z,23.10
2018-09-19T20:34:57.004Z,23.10
2018-09-19T20:37:26.035Z,23.00
2018-09-19T20:39:55.248Z,22.90
2018-09-19T20:42:24.392Z,22.90
2018-09-19T20:44:53.431Z,22.90
2018-09-19T20:47:22.455Z,22.90
2018-09-19T20:49:51.504Z,22.80
2018-09-19T20:52:20.533Z,22.80
2018-09-19T20:54:49.547Z,22.80
2018-09-19T20:57:18.655Z,22.80
2018-09-19T20:59:47.758Z,22.70
2018-09-19T21:02:16.809Z,22.70
2018-09-19T21:04:45.987Z,22.60
2018-09-19T21:07:15.038Z,22.60
2018-09-19T21:09:44.029Z,22.50
2018-09-19T21:12:13.057Z,22.40
2018-09-19T21:14:42.114Z,22.40
2018-09-19T21:17:11.140Z,22.40
2018-09-19T21:19:40.161Z,22.40
2018-09-19T21:22:09.240Z,22.30
2018-09-19T21:24:38.183Z,22.40
2018-09-19T21:27:07.270Z,22.40
2018-09-19T21:29:36.293Z,22.30
2018-09-19T21:32:05.567Z,22.20
2018-09-19T21:34:34.625Z,22.20
2018-09-19T21:37:03.688Z,22.20
2018-09-19T21:39:32.724Z,22.20
2018-09-19T21:42:01.788Z,22.20
2018-09-19T21:44:30.794Z,22.10
2018-09-19T21:46:59.772Z,22.10
2018-09-19T21:49:28.783Z,22.10
2018-09-19T21:51:57.753Z,22.10
2018-09-19T21:54:26.842Z,22.00
2018-09-19T21:56:55.846Z,21.90
2018-09-19T21:59:24.866Z,21.90
2018-09-19T22:02:01.215Z,21.90
2018-09-19T22:04:30.239Z,21.90
2018-09-19T22:06:59.253Z,21.80
2018-09-19T22:09:35.655Z,21.80
2018-09-19T22:12:09.348Z,21.80
2018-09-19T22:14:40.595Z,21.70
2018-09-19T22:17:09.546Z,21.70
2018-09-19T22:19:38.539Z,21.60
2018-09-19T22:22:07.698Z,21.60
2018-09-19T22:24:36.697Z,21.60
2018-09-19T22:27:05.861Z,21.60
2018-09-19T22:29:34.830Z,21.60
2018-09-19T22:32:03.825Z,21.60
2018-09-19T22:34:32.872Z,21.60
2018-09-19T22:37:01.858Z,21.60
2018-09-19T22:39:30.833Z,21.50
2018-09-19T22:41:59.858Z,21.40
2018-09-19T22:44:28.817Z,21.40
2018-09-19T22:46:57.809Z,21.40
2018-09-19T22:49:26.752Z,21.30
2018-09-19T22:51:55.789Z,21.30
2018-09-19T22:54:24.809Z,21.30
2018-09-19T22:56:53.888Z,21.20
2018-09-19T22:59:22.976Z,21.20
2018-09-19T23:01:51.903Z,21.20
2018-09-19T23:04:20.873Z,21.20
2018-09-19T23:06:49.950Z,21.20
2018-09-19T23:09:19.074Z,21.20
2018-09-19T23:11:48.052Z,21.30
2018-09-19T23:14:16.984Z,21.20
2018-09-19T23:16:45.952Z,21.20
2018-09-19T23:19:14.960Z,21.10
2018-09-19T23:21:44.052Z,21.10
2018-09-19T23:24:13.036Z,21.00
2018-09-19T23:26:42.024Z,21.00
2018-09-19T23:29:11.116Z,21.00
2018-09-19T23:31:40.106Z,21.00
2018-09-19T23:34:09.101Z,20.90
2018-09-19T23:36:38.040Z,21.00
2018-09-19T23:39:09.575Z,21.00
2018-09-19T23:41:38.643Z,21.00
2018-09-19T23:44:07.668Z,21.10
2018-09-19T23:46:36.651Z,21.10
2018-09-19T23:49:05.790Z,21.10
2018-09-19T23:51:34.824Z,21.10
2018-09-19T23:54:03.764Z,21.00
2018-09-19T23:56:32.693Z,21.00
2018-09-19T23:59:01.632Z,20.90
